createdAt,value
2018-10-18T00:01:05.024Z,11.79
2018-10-18T00:02:15.657Z,11.79
2018-10-18T00:03:26.544Z,11.8
2018-10-18T00:04:36.974Z,11.8
2018-10-18T00:05:47.137Z,11.74
2018-10-18T00:06:57.316Z,11.82
2018-10-18T00:08:07.825Z,11.76
2018-10-18T00:09:18.460Z,11.8
2018-10-18T00:10:28.584Z,11.8
2018-10-18T00:12:52.594Z,11.72
2018-10-18T00:14:02.910Z,11.74
2018-10-18T00:15:13.411Z,11.69
2018-10-18T00:16:23.621Z,11.72
2018-10-18T00:17:33.774Z,11.65
2018-10-18T00:18:43.908Z,11.62
2018-10-18T00:19:54.066Z,11.61
2018-10-18T00:21:04.341Z,11.58
2018-10-18T00:22:14.492Z,11.61
2018-10-18T00:23:24.633Z,11.59
2018-10-18T00:24:34.870Z,11.5
2018-10-18T00:25:45.030Z,11.53
2018-10-18T00:26:55.185Z,11.46
2018-10-18T00:28:06.578Z,11.5
2018-10-18T00:29:16.701Z,11.43
2018-10-18T00:30:26.904Z,11.38
2018-10-18T00:31:36.773Z,11.38
2018-10-18T00:32:47.035Z,11.46
2018-10-18T00:33:57.227Z,11.39
2018-10-18T00:35:07.369Z,11.4
2018-10-18T00:36:17.963Z,11.48
2018-10-18T00:37:30.693Z,11.4
2018-10-18T00:38:40.977Z,11.45
2018-10-18T00:39:51.276Z,11.39
2018-10-18T00:41:01.161Z,11.43
2018-10-18T00:42:11.640Z,11.31
2018-10-18T00:43:22.198Z,11.3
2018-10-18T00:44:32.107Z,11.33
2018-10-18T00:45:42.317Z,11.31
2018-10-18T00:46:52.563Z,11.24
2018-10-18T00:48:02.914Z,11.16
2018-10-18T00:49:13.284Z,11.15
2018-10-18T00:50:23.590Z,11.23
2018-10-18T00:51:33.733Z,11.23
2018-10-18T00:52:43.859Z,11.16
2018-10-18T00:53:54.048Z,11.13
2018-10-18T00:55:04.358Z,11.25
2018-10-18T00:56:14.765Z,11.12
2018-10-18T00:57:25.121Z,11.21
2018-10-18T00:58:35.269Z,11.24
2018-10-18T00:59:45.422Z,11.13
2018-10-18T01:00:55.381Z,11.13
2018-10-18T01:02:05.683Z,11.21
2018-10-18T01:03:16.130Z,11.17
2018-10-18T01:04:26.281Z,11.16
2018-10-18T01:05:36.542Z,11.17
2018-10-18T01:06:46.466Z,11.15
2018-10-18T01:07:56.703Z,11.13
2018-10-18T01:09:07.045Z,11.12
2018-10-18T01:10:17.173Z,11.12
2018-10-18T01:11:27.341Z,11.13
2018-10-18T01:12:37.810Z,11.15
2018-10-18T01:13:48.572Z,11.09
2018-10-18T01:14:58.841Z,11.02
2018-10-18T01:16:09.079Z,11.05
2018-10-18T01:17:19.317Z,11.02
2018-10-18T01:18:29.506Z,11.08
2018-10-18T01:19:39.731Z,10.98
2018-10-18T01:20:49.912Z,11
2018-10-18T01:22:00.149Z,10.98
2018-10-18T01:23:10.346Z,10.9
2018-10-18T01:24:20.802Z,10.9
2018-10-18T01:25:31.018Z,10.94
2018-10-18T01:26:41.149Z,10.85
2018-10-18T01:27:51.329Z,10.83
2018-10-18T01:29:01.545Z,10.91
2018-10-18T01:30:12.238Z,10.91
2018-10-18T01:31:22.647Z,10.85
2018-10-18T01:32:32.777Z,10.87
2018-10-18T01:33:42.944Z,10.79
2018-10-18T01:34:53.354Z,10.79
2018-10-18T01:36:03.673Z,10.79
2018-10-18T01:37:14.331Z,10.75
2018-10-18T01:38:24.459Z,10.75
2018-10-18T01:39:34.436Z,10.73
2018-10-18T01:40:44.586Z,10.69
2018-10-18T01:41:54.808Z,10.75
2018-10-18T01:43:05.153Z,10.67
2018-10-18T01:44:15.685Z,10.72
2018-10-18T01:45:25.924Z,10.69
2018-10-18T01:46:36.112Z,10.76
2018-10-18T01:47:46.291Z,10.8
2018-10-18T01:48:56.452Z,10.83
2018-10-18T01:50:07.053Z,10.79
2018-10-18T01:54:13.593Z,10.73
2018-10-18T01:55:24.212Z,10.67
2018-10-18T01:56:34.325Z,10.57
2018-10-18T01:57:44.447Z,10.59
2018-10-18T01:58:54.564Z,10.58
2018-10-18T02:00:04.927Z,10.66
2018-10-18T02:01:15.323Z,10.57
2018-10-18T02:02:25.443Z,10.58
2018-10-18T02:03:35.564Z,10.5
2018-10-18T02:04:45.684Z,10.48
2018-10-18T02:05:55.568Z,10.51
2018-10-18T02:07:05.842Z,10.5
2018-10-18T02:08:16.292Z,10.48
2018-10-18T02:09:26.292Z,10.47
2018-10-18T02:10:36.435Z,10.36
2018-10-18T02:11:46.659Z,10.45
2018-10-18T02:12:56.594Z,10.42
2018-10-18T02:14:06.716Z,10.39
2018-10-18T02:15:16.829Z,10.36
2018-10-18T02:16:26.695Z,10.43
2018-10-18T02:17:36.449Z,10.37
2018-10-18T02:18:46.577Z,10.39
2018-10-18T02:19:56.468Z,10.33
2018-10-18T02:21:06.591Z,10.37
2018-10-18T02:22:16.705Z,10.3
2018-10-18T02:23:26.822Z,10.32
2018-10-18T02:24:36.943Z,10.36
2018-10-18T02:25:47.100Z,10.32
2018-10-18T02:26:57.210Z,10.39
2018-10-18T02:28:07.323Z,10.34
2018-10-18T02:29:17.440Z,10.34
2018-10-18T02:30:27.701Z,10.39
2018-10-18T02:31:37.819Z,10.37
2018-10-18T02:32:47.940Z,10.37
2018-10-18T02:33:58.069Z,10.34
2018-10-18T02:35:08.199Z,10.32
2018-10-18T02:36:18.745Z,10.24
2018-10-18T02:37:29.329Z,10.3
2018-10-18T02:38:39.455Z,10.34
2018-10-18T02:39:49.573Z,10.39
2018-10-18T02:40:59.784Z,10.29
2018-10-18T02:42:10.283Z,10.24
2018-10-18T02:43:20.753Z,10.27
2018-10-18T02:44:30.877Z,10.4
2018-10-18T02:45:40.988Z,10.37
2018-10-18T02:46:51.142Z,10.34
2018-10-18T02:48:01.404Z,10.29
2018-10-18T02:49:11.779Z,10.32
2018-10-18T02:50:21.924Z,10.29
2018-10-18T02:51:32.084Z,10.29
2018-10-18T02:52:42.194Z,10.26
2018-10-18T02:53:52.315Z,10.37
2018-10-18T02:55:02.508Z,10.26
2018-10-18T02:56:12.627Z,10.26
2018-10-18T02:57:22.738Z,10.39
2018-10-18T02:58:32.866Z,10.27
2018-10-18T02:59:43.183Z,10.29
2018-10-18T03:00:53.300Z,10.3
2018-10-18T03:02:03.154Z,10.33
2018-10-18T03:03:13.268Z,10.32
2018-10-18T03:04:23.346Z,10.27
2018-10-18T03:05:33.109Z,10.29
2018-10-18T03:06:43.218Z,10.3
2018-10-18T03:07:53.338Z,10.26
2018-10-18T03:09:03.477Z,10.37
2018-10-18T03:10:13.586Z,10.3
2018-10-18T03:11:23.699Z,10.33
2018-10-18T03:12:33.838Z,10.3
2018-10-18T03:13:43.956Z,10.29
2018-10-18T03:14:54.121Z,10.3
2018-10-18T03:16:04.538Z,10.39
2018-10-18T03:17:15.169Z,10.3
2018-10-18T03:18:25.331Z,10.3
2018-10-18T03:19:35.460Z,10.27
2018-10-18T03:20:45.599Z,10.29
2018-10-18T03:21:55.720Z,10.29
2018-10-18T03:23:05.576Z,10.29
2018-10-18T03:24:16.236Z,10.29
2018-10-18T03:25:26.666Z,10.3
2018-10-18T03:26:36.780Z,10.27
2018-10-18T03:27:46.902Z,10.29
2018-10-18T03:28:57.015Z,10.32
2018-10-18T03:30:07.537Z,10.29
2018-10-18T03:31:18.055Z,10.32
2018-10-18T03:32:28.180Z,10.33
2018-10-18T03:33:38.306Z,10.27
2018-10-18T03:34:48.439Z,10.24
2018-10-18T03:35:58.580Z,10.32
2018-10-18T03:37:08.874Z,10.29
2018-10-18T03:38:19.001Z,10.26
2018-10-18T03:39:29.127Z,10.22
2018-10-18T03:40:39.257Z,10.24
2018-10-18T03:41:49.600Z,10.27
2018-10-18T03:42:59.881Z,10.27
2018-10-18T03:44:10.001Z,10.34
2018-10-18T03:45:20.124Z,10.36
2018-10-18T03:46:30.246Z,10.22
2018-10-18T03:47:40.351Z,10.32
2018-10-18T03:48:50.456Z,10.29
2018-10-18T03:50:01.564Z,10.19
2018-10-18T03:51:11.717Z,10.24
2018-10-18T03:52:21.846Z,10.34
2018-10-18T03:53:31.972Z,10.29
2018-10-18T03:54:42.097Z,10.3
2018-10-18T03:55:52.211Z,10.3
2018-10-18T03:57:02.326Z,10.26
2018-10-18T03:58:12.500Z,10.29
2018-10-18T03:59:22.651Z,10.3
2018-10-18T04:00:32.851Z,10.22
2018-10-18T04:01:42.973Z,10.3
2018-10-18T04:02:53.116Z,10.27
2018-10-18T04:04:03.239Z,10.27
2018-10-18T04:05:13.360Z,10.34
2018-10-18T04:06:23.429Z,10.26
2018-10-18T04:07:33.548Z,10.34
2018-10-18T04:08:43.673Z,10.24
2018-10-18T04:09:53.785Z,10.37
2018-10-18T04:11:03.904Z,10.3
2018-10-18T04:12:14.528Z,10.36
2018-10-18T04:13:25.404Z,10.26
2018-10-18T04:14:35.523Z,10.33
2018-10-18T04:15:45.674Z,10.24
2018-10-18T04:16:55.806Z,10.34
2018-10-18T04:18:06.470Z,10.36
2018-10-18T04:19:17.284Z,10.36
2018-10-18T04:20:27.390Z,10.37
2018-10-18T04:21:37.540Z,10.37
2018-10-18T04:22:47.662Z,10.39
2018-10-18T04:23:57.906Z,10.39
2018-10-18T04:25:08.190Z,10.39
2018-10-18T04:26:18.310Z,10.39
2018-10-18T04:27:28.480Z,10.37
2018-10-18T04:28:38.613Z,10.37
2018-10-18T04:29:48.701Z,10.42
2018-10-18T04:30:58.838Z,10.36
2018-10-18T04:32:08.957Z,10.45
2018-10-18T04:33:19.063Z,10.4
2018-10-18T04:34:29.207Z,10.48
2018-10-18T04:35:39.341Z,10.47
2018-10-18T04:36:49.464Z,10.4
2018-10-18T04:37:59.612Z,10.34
2018-10-18T04:39:09.956Z,10.39
2018-10-18T04:40:20.098Z,10.34
2018-10-18T04:41:30.231Z,10.27
2018-10-18T04:42:40.370Z,10.26
2018-10-18T04:43:50.489Z,10.24
2018-10-18T04:45:00.840Z,10.29
2018-10-18T04:46:10.956Z,10.27
2018-10-18T04:47:21.480Z,10.32
2018-10-18T04:48:32.571Z,10.37
2018-10-18T04:49:43.261Z,10.29
2018-10-18T04:50:53.580Z,10.29
2018-10-18T04:52:05.749Z,10.33
2018-10-18T04:53:15.878Z,10.17
2018-10-18T04:54:25.998Z,10.1
2018-10-18T04:55:36.131Z,10.15
2018-10-18T04:56:46.471Z,10.19
2018-10-18T04:57:56.930Z,10.17
2018-10-18T04:59:07.057Z,10.15
2018-10-18T05:00:17.207Z,10.13
2018-10-18T05:01:27.676Z,10.13
2018-10-18T05:02:38.090Z,10.13
2018-10-18T05:03:48.650Z,9.99
2018-10-18T05:04:58.933Z,10.05
2018-10-18T05:06:09.051Z,9.99
2018-10-18T05:07:19.626Z,10.03
2018-10-18T05:08:29.843Z,9.85
2018-10-18T05:09:39.952Z,10
2018-10-18T05:10:50.070Z,9.93
2018-10-18T05:12:00.205Z,9.91
2018-10-18T05:13:10.245Z,9.93
2018-10-18T05:14:20.883Z,9.89
2018-10-18T05:15:31.035Z,9.84
2018-10-18T05:16:41.163Z,9.88
2018-10-18T05:17:51.275Z,9.78
2018-10-18T05:19:01.554Z,9.81
2018-10-18T05:20:12.026Z,9.81
2018-10-18T05:21:22.152Z,9.88
2018-10-18T05:22:32.262Z,9.81
2018-10-18T05:23:42.492Z,9.81
2018-10-18T05:24:52.882Z,9.83
2018-10-18T05:26:03.252Z,9.85
2018-10-18T05:27:13.368Z,9.89
2018-10-18T05:28:23.478Z,9.88
2018-10-18T05:29:33.589Z,9.88
2018-10-18T05:30:43.710Z,9.93
2018-10-18T05:31:54.077Z,9.93
2018-10-18T05:33:04.198Z,9.96
2018-10-18T05:34:14.543Z,9.96
2018-10-18T05:35:24.882Z,9.93
2018-10-18T05:36:34.995Z,9.96
2018-10-18T05:37:45.496Z,10.07
2018-10-18T05:38:56.068Z,10
2018-10-18T05:40:06.204Z,10.03
2018-10-18T05:41:16.353Z,10.07
2018-10-18T05:42:26.485Z,10.02
2018-10-18T05:43:36.333Z,9.98
2018-10-18T05:44:46.457Z,9.95
2018-10-18T05:45:56.576Z,10.02
2018-10-18T05:47:06.853Z,10.03
2018-10-18T05:48:17.335Z,10
2018-10-18T05:49:27.469Z,9.99
2018-10-18T05:50:37.584Z,10.15
2018-10-18T05:51:47.705Z,10.15
2018-10-18T05:52:58.035Z,10.11
2018-10-18T05:54:08.237Z,10.13
2018-10-18T05:55:19.086Z,10.13
2018-10-18T05:56:29.219Z,10.17
2018-10-18T05:57:39.101Z,10.18
2018-10-18T05:58:49.210Z,10.18
2018-10-18T05:59:59.338Z,10.18
2018-10-18T06:01:09.818Z,10.11
2018-10-18T06:02:20.389Z,10.15
2018-10-18T06:03:30.519Z,10.24
2018-10-18T06:04:40.639Z,10.18
2018-10-18T06:05:50.762Z,10.18
2018-10-18T06:07:00.965Z,10.32
2018-10-18T06:08:11.335Z,10.32
2018-10-18T06:09:21.456Z,10.3
2018-10-18T06:10:31.945Z,10.36
2018-10-18T06:11:42.577Z,10.26
2018-10-18T06:12:52.742Z,10.22
2018-10-18T06:14:02.602Z,10.4
2018-10-18T06:15:12.735Z,10.39
2018-10-18T06:16:22.838Z,10.43
2018-10-18T06:17:32.960Z,10.48
2018-10-18T06:18:43.071Z,10.57
2018-10-18T06:19:53.206Z,10.52
2018-10-18T06:21:03.532Z,10.59
2018-10-18T06:22:13.390Z,10.55
2018-10-18T06:23:23.979Z,10.57
2018-10-18T06:24:34.529Z,10.66
2018-10-18T06:25:44.653Z,10.66
2018-10-18T06:26:54.633Z,10.72
2018-10-18T06:28:04.752Z,10.73
2018-10-18T06:29:15.147Z,10.73
2018-10-18T06:30:25.450Z,10.84
2018-10-18T06:31:35.574Z,10.73
2018-10-18T06:32:45.690Z,10.72
2018-10-18T06:33:55.845Z,10.73
2018-10-18T06:35:05.916Z,10.75
2018-10-18T06:36:16.267Z,10.72
2018-10-18T06:37:26.408Z,10.67
2018-10-18T06:38:36.945Z,10.69
2018-10-18T06:39:47.063Z,10.69
2018-10-18T06:40:57.303Z,10.72
2018-10-18T06:42:07.512Z,10.75
2018-10-18T06:43:17.518Z,10.7
2018-10-18T06:44:27.734Z,10.66
2018-10-18T06:45:37.851Z,10.7
2018-10-18T06:46:47.690Z,10.65
2018-10-18T06:47:58.862Z,10.67
2018-10-18T06:49:09.985Z,10.69
2018-10-18T06:50:20.613Z,10.67
2018-10-18T06:51:30.925Z,10.65
2018-10-18T06:52:40.537Z,10.65
2018-10-18T06:53:50.670Z,10.69
2018-10-18T06:55:01.060Z,10.69
2018-10-18T06:56:11.326Z,10.67
2018-10-18T06:57:21.208Z,10.7
2018-10-18T06:58:31.326Z,10.76
2018-10-18T06:59:41.161Z,10.72
2018-10-18T07:00:51.471Z,10.67
2018-10-18T07:02:01.830Z,10.7
2018-10-18T07:03:12.209Z,10.72
2018-10-18T07:04:22.329Z,10.65
2018-10-18T07:05:32.453Z,10.72
2018-10-18T07:06:42.577Z,10.75
2018-10-18T07:07:52.725Z,10.69
2018-10-18T07:09:02.745Z,10.77
2018-10-18T07:10:12.897Z,10.72
2018-10-18T07:11:23.039Z,10.73
2018-10-18T07:12:33.274Z,10.67
2018-10-18T07:13:43.133Z,10.69
2018-10-18T07:14:53.281Z,10.7
2018-10-18T07:16:03.401Z,10.66
2018-10-18T07:17:13.529Z,10.7
2018-10-18T07:18:23.739Z,10.69
2018-10-18T07:19:33.862Z,10.72
2018-10-18T07:20:44.002Z,10.7
2018-10-18T07:21:54.177Z,10.67
2018-10-18T07:23:04.314Z,10.65
2018-10-18T07:24:14.577Z,10.65
2018-10-18T07:25:25.265Z,10.7
2018-10-18T07:26:35.433Z,10.67
2018-10-18T07:27:45.548Z,10.65
2018-10-18T07:28:55.673Z,10.73
2018-10-18T07:30:06.111Z,10.65
2018-10-18T07:31:16.579Z,10.66
2018-10-18T07:32:26.698Z,10.69
2018-10-18T07:33:36.832Z,10.67
2018-10-18T07:34:47.044Z,10.67
2018-10-18T07:35:57.391Z,10.67
2018-10-18T07:37:07.627Z,10.72
2018-10-18T07:38:17.762Z,10.69
2018-10-18T07:39:27.886Z,10.75
2018-10-18T07:40:38.039Z,10.7
2018-10-18T07:41:48.164Z,10.72
2018-10-18T07:42:58.329Z,10.73
2018-10-18T07:44:08.461Z,10.61
2018-10-18T07:45:18.585Z,10.7
2018-10-18T07:46:28.732Z,10.73
2018-10-18T07:47:38.853Z,10.73
2018-10-18T07:48:49.021Z,10.72
2018-10-18T07:49:59.155Z,10.83
2018-10-18T07:51:09.551Z,10.8
2018-10-18T07:52:19.679Z,10.79
2018-10-18T07:53:30.023Z,10.79
2018-10-18T07:54:40.448Z,10.87
2018-10-18T07:55:50.584Z,10.84
2018-10-18T07:57:00.747Z,10.83
2018-10-18T07:58:10.873Z,10.84
2018-10-18T07:59:21.005Z,10.83
2018-10-18T08:00:31.393Z,10.91
2018-10-18T08:01:41.533Z,10.92
2018-10-18T08:02:51.642Z,10.84
2018-10-18T08:04:01.530Z,10.94
2018-10-18T08:05:11.659Z,10.91
2018-10-18T08:06:21.784Z,10.94
2018-10-18T08:07:31.921Z,10.98
2018-10-18T08:08:42.042Z,11.06
2018-10-18T08:09:52.269Z,11
2018-10-18T08:11:02.795Z,11.06
2018-10-18T08:12:13.291Z,11.13
2018-10-18T08:13:23.548Z,11.09
2018-10-18T08:14:33.689Z,11.1
2018-10-18T08:15:43.827Z,11.09
2018-10-18T08:16:54.312Z,11.15
2018-10-18T08:18:04.314Z,11.16
2018-10-18T08:19:14.958Z,11.09
2018-10-18T08:20:25.617Z,11.1
2018-10-18T08:21:35.751Z,11.1
2018-10-18T08:22:46.261Z,11.17
2018-10-18T08:23:56.630Z,11.16
2018-10-18T08:25:07.001Z,11.13
2018-10-18T08:26:17.609Z,11.12
2018-10-18T08:27:27.738Z,11.13
2018-10-18T08:28:37.630Z,11
2018-10-18T08:29:47.504Z,11.08
2018-10-18T08:30:57.739Z,11.08
2018-10-18T08:32:08.049Z,11
2018-10-18T08:33:18.176Z,11.06
2018-10-18T08:34:28.304Z,11.09
2018-10-18T08:35:38.411Z,11.08
2018-10-18T08:36:48.747Z,11.1
2018-10-18T08:37:59.591Z,11.09
2018-10-18T08:39:10.550Z,11.05
2018-10-18T08:40:20.316Z,11
2018-10-18T08:41:30.445Z,11.15
2018-10-18T08:42:40.582Z,11.15
2018-10-18T08:43:50.799Z,11.13
2018-10-18T08:45:01.214Z,11.23
2018-10-18T08:46:11.355Z,11.2
2018-10-18T08:47:21.465Z,11.28
2018-10-18T08:48:31.590Z,11.3
2018-10-18T08:49:41.478Z,11.31
2018-10-18T08:50:51.872Z,11.33
2018-10-18T08:52:01.991Z,11.3
2018-10-18T08:53:12.111Z,11.35
2018-10-18T08:54:22.292Z,11.42
2018-10-18T08:55:32.686Z,11.38
2018-10-18T08:56:43.054Z,11.42
2018-10-18T08:57:53.177Z,11.43
2018-10-18T08:59:03.379Z,11.39
2018-10-18T09:00:13.709Z,11.38
2018-10-18T09:01:23.815Z,11.42
2018-10-18T09:02:33.935Z,11.4
2018-10-18T09:03:44.063Z,11.31
2018-10-18T09:04:53.933Z,11.39
2018-10-18T09:06:04.056Z,11.42
2018-10-18T09:07:14.496Z,11.43
2018-10-18T09:08:24.771Z,11.39
2018-10-18T09:09:34.907Z,11.31
2018-10-18T09:10:45.020Z,11.46
2018-10-18T09:11:54.892Z,11.35
2018-10-18T09:13:05.283Z,11.45
2018-10-18T09:14:15.741Z,11.43
2018-10-18T09:15:25.902Z,11.45
2018-10-18T09:16:36.050Z,11.43
2018-10-18T09:17:46.168Z,11.45
2018-10-18T09:18:56.419Z,11.5
2018-10-18T09:20:06.635Z,11.45
2018-10-18T09:21:16.765Z,11.48
2018-10-18T09:22:26.715Z,11.48
2018-10-18T09:23:36.958Z,11.61
2018-10-18T09:24:47.192Z,11.62
2018-10-18T09:25:57.375Z,11.65
2018-10-18T09:27:07.500Z,11.62
2018-10-18T09:28:17.660Z,11.72
2018-10-18T09:29:27.772Z,11.8
2018-10-18T09:30:37.885Z,11.76
2018-10-18T09:31:48.027Z,11.8
2018-10-18T09:32:57.907Z,11.76
2018-10-18T09:34:08.483Z,11.8
2018-10-18T09:35:18.635Z,11.8
2018-10-18T09:36:28.772Z,11.87
2018-10-18T09:37:38.901Z,11.87
2018-10-18T09:38:49.035Z,11.87
2018-10-18T09:39:58.933Z,11.94
2018-10-18T09:41:09.304Z,11.94
2018-10-18T09:42:19.446Z,12.04
2018-10-18T09:43:29.589Z,12.07
2018-10-18T09:44:39.856Z,12.07
2018-10-18T09:45:50.332Z,12.05
2018-10-18T09:47:00.468Z,12.02
2018-10-18T09:48:10.609Z,12.17
2018-10-18T09:49:21.064Z,12.17
2018-10-18T09:50:31.210Z,12.24
2018-10-18T09:51:41.417Z,12.16
2018-10-18T09:52:51.708Z,12.27
2018-10-18T09:54:01.991Z,12.29
2018-10-18T09:55:12.817Z,12.31
2018-10-18T09:56:23.533Z,12.2
2018-10-18T09:57:33.662Z,12.31
2018-10-18T09:58:43.541Z,12.23
2018-10-18T09:59:53.670Z,12.27
2018-10-18T10:01:03.913Z,12.35
2018-10-18T10:02:14.340Z,12.38
2018-10-18T10:03:24.456Z,12.32
2018-10-18T10:04:35.400Z,12.29
2018-10-18T10:05:45.524Z,12.45
2018-10-18T10:06:55.672Z,12.44
2018-10-18T10:08:05.900Z,12.42
2018-10-18T10:09:16.042Z,12.42
2018-10-18T10:10:30.970Z,12.45
2018-10-18T10:12:57.367Z,12.52
2018-10-18T10:14:07.776Z,12.52
2018-10-18T10:15:17.928Z,12.5
2018-10-18T10:16:28.054Z,12.52
2018-10-18T10:17:38.465Z,12.6
2018-10-18T10:18:49.020Z,12.57
2018-10-18T10:19:59.155Z,12.6
2018-10-18T10:21:09.268Z,12.66
2018-10-18T10:22:19.397Z,12.63
2018-10-18T10:23:29.549Z,12.59
2018-10-18T10:24:40.084Z,12.6
2018-10-18T10:25:50.615Z,12.57
2018-10-18T10:27:00.960Z,12.62
2018-10-18T10:28:11.130Z,12.55
2018-10-18T10:29:21.265Z,12.53
2018-10-18T10:30:31.877Z,12.62
2018-10-18T10:31:42.110Z,12.6
2018-10-18T10:32:52.493Z,12.57
2018-10-18T10:34:03.202Z,12.57
2018-10-18T10:35:13.228Z,12.53
2018-10-18T10:36:23.370Z,12.6
2018-10-18T10:37:33.505Z,12.56
2018-10-18T10:38:43.860Z,12.57
2018-10-18T10:39:54.062Z,12.57
2018-10-18T10:41:04.141Z,12.55
2018-10-18T10:42:14.373Z,12.57
2018-10-18T10:43:25.014Z,12.59
2018-10-18T10:44:35.081Z,12.6
2018-10-18T10:45:45.458Z,12.62
2018-10-18T10:46:56.204Z,12.6
2018-10-18T10:48:06.565Z,12.7
2018-10-18T10:49:17.430Z,12.78
2018-10-18T10:50:27.900Z,12.77
2018-10-18T10:51:38.031Z,12.84
2018-10-18T10:52:48.168Z,12.81
2018-10-18T10:53:58.435Z,12.82
2018-10-18T10:55:08.713Z,12.8
2018-10-18T10:56:19.269Z,12.85
2018-10-18T10:57:29.560Z,12.96
2018-10-18T10:58:39.691Z,12.93
2018-10-18T10:59:49.848Z,12.84
2018-10-18T11:00:59.994Z,13
2018-10-18T11:02:10.377Z,12.96
2018-10-18T11:03:21.054Z,12.93
2018-10-18T11:04:31.189Z,13
2018-10-18T11:05:41.333Z,12.92
2018-10-18T11:06:51.474Z,13.04
2018-10-18T11:08:01.677Z,12.95
2018-10-18T11:09:12.355Z,12.89
2018-10-18T11:10:23.161Z,13
2018-10-18T11:11:33.293Z,13.06
2018-10-18T11:12:43.446Z,13.03
2018-10-18T11:13:53.858Z,13.01
2018-10-18T11:15:04.308Z,12.97
2018-10-18T11:16:14.609Z,13.01
2018-10-18T11:17:25.160Z,13.04
2018-10-18T11:18:35.307Z,13.11
2018-10-18T11:19:45.450Z,13.13
2018-10-18T11:20:55.641Z,13.08
2018-10-18T11:22:05.899Z,13.11
2018-10-18T11:23:16.029Z,13.11
2018-10-18T11:24:26.332Z,13.18
2018-10-18T11:25:36.645Z,13.15
2018-10-18T11:26:46.803Z,13.19
2018-10-18T11:27:57.036Z,13.18
2018-10-18T11:29:07.175Z,13.21
2018-10-18T11:30:17.738Z,13.23
2018-10-18T11:31:27.943Z,13.29
2018-10-18T11:32:38.299Z,13.31
2018-10-18T11:33:48.420Z,13.3
2018-10-18T11:34:58.311Z,13.3
2018-10-18T11:36:08.582Z,13.29
2018-10-18T11:37:19.219Z,13.36
2018-10-18T11:38:29.386Z,13.38
2018-10-18T11:39:39.628Z,13.34
2018-10-18T11:40:50.547Z,13.36
2018-10-18T11:42:01.466Z,13.38
2018-10-18T11:43:12.538Z,13.46
2018-10-18T11:44:23.282Z,13.41
2018-10-18T11:45:35.298Z,13.44
2018-10-18T11:46:46.896Z,13.49
2018-10-18T11:48:01.777Z,13.49
2018-10-18T11:49:12.942Z,13.54
2018-10-18T11:50:23.400Z,13.56
2018-10-18T11:51:33.938Z,13.56
2018-10-18T11:52:44.503Z,13.55
2018-10-18T11:53:54.689Z,13.56
2018-10-18T11:55:05.094Z,13.63
2018-10-18T11:56:15.677Z,13.56
2018-10-18T11:57:26.048Z,13.48
2018-10-18T11:58:36.263Z,13.49
2018-10-18T11:59:46.395Z,13.66
2018-10-18T12:00:56.303Z,13.56
2018-10-18T12:02:06.746Z,13.64
2018-10-18T12:03:17.328Z,13.59
2018-10-18T12:04:27.509Z,13.58
2018-10-18T12:05:37.629Z,13.63
2018-10-18T12:06:47.755Z,13.63
2018-10-18T12:07:58.002Z,13.7
2018-10-18T12:09:08.018Z,13.71
2018-10-18T12:10:18.146Z,13.63
2018-10-18T12:11:28.288Z,13.74
2018-10-18T12:12:38.410Z,13.63
2018-10-18T12:13:48.543Z,13.61
2018-10-18T12:14:58.702Z,13.58
2018-10-18T12:16:08.843Z,13.58
2018-10-18T12:17:19.211Z,13.77
2018-10-18T12:18:29.361Z,13.79
2018-10-18T12:19:39.515Z,13.82
2018-10-18T12:20:49.655Z,13.88
2018-10-18T12:21:59.819Z,14
2018-10-18T12:23:10.136Z,13.96
2018-10-18T12:24:20.589Z,14.14
2018-10-18T12:25:30.754Z,14.1
2018-10-18T12:26:40.957Z,14.09
2018-10-18T12:27:51.188Z,14.19
2018-10-18T12:29:01.515Z,14.19
2018-10-18T12:30:11.841Z,14.07
2018-10-18T12:31:21.718Z,14.09
2018-10-18T12:32:31.602Z,14.11
2018-10-18T12:33:41.731Z,14.07
2018-10-18T12:34:51.881Z,14.04
2018-10-18T12:36:02.100Z,14.14
2018-10-18T12:37:12.222Z,14.11
2018-10-18T12:38:22.519Z,14.1
2018-10-18T12:39:32.803Z,14
2018-10-18T12:40:43.465Z,13.99
2018-10-18T12:41:54.041Z,14.04
2018-10-18T12:43:04.491Z,14
2018-10-18T12:44:15.085Z,14.03
2018-10-18T12:45:25.486Z,14.1
2018-10-18T12:46:35.605Z,14.13
2018-10-18T12:47:45.734Z,14
2018-10-18T12:48:55.888Z,14.16
2018-10-18T12:50:06.344Z,14.14
2018-10-18T12:51:16.970Z,14.04
2018-10-18T12:52:27.117Z,14.13
2018-10-18T12:53:37.246Z,14.11
2018-10-18T12:54:47.585Z,14.1
2018-10-18T12:55:57.811Z,14.11
2018-10-18T12:57:08.075Z,14.02
2018-10-18T12:58:18.223Z,14.11
2018-10-18T12:59:28.395Z,14.11
2018-10-18T13:00:38.521Z,13.99
2018-10-18T13:01:48.737Z,13.95
2018-10-18T13:02:58.704Z,14.03
2018-10-18T13:04:08.839Z,14.02
2018-10-18T13:05:18.987Z,13.99
2018-10-18T13:06:29.136Z,14.03
2018-10-18T13:07:39.286Z,13.89
2018-10-18T13:08:49.046Z,14.03
2018-10-18T13:09:59.271Z,13.99
2018-10-18T13:11:09.413Z,14.02
2018-10-18T13:12:20.092Z,14.06
2018-10-18T13:13:31.151Z,14.04
2018-10-18T13:14:41.307Z,14.07
2018-10-18T13:15:51.478Z,14.13
2018-10-18T13:17:01.623Z,14.04
2018-10-18T13:18:11.946Z,14.09
2018-10-18T13:19:22.747Z,14.11
2018-10-18T13:20:32.897Z,14.13
2018-10-18T13:21:43.030Z,14.07
2018-10-18T13:22:53.387Z,14.09
2018-10-18T13:24:03.942Z,14.07
2018-10-18T13:25:14.588Z,14.03
2018-10-18T13:26:24.930Z,14.1
2018-10-18T13:27:35.059Z,14.16
2018-10-18T13:28:45.193Z,14.13
2018-10-18T13:29:55.429Z,14.14
2018-10-18T13:31:05.647Z,14.19
2018-10-18T13:32:16.152Z,14.21
2018-10-18T13:33:26.115Z,14.14
2018-10-18T13:34:36.248Z,14.16
2018-10-18T13:35:46.376Z,14.18
2018-10-18T13:36:56.504Z,14.14
2018-10-18T13:38:06.994Z,14.14
2018-10-18T13:39:17.663Z,14.11
2018-10-18T13:40:27.969Z,14.11
2018-10-18T13:41:38.260Z,14.18
2018-10-18T13:42:48.164Z,14.16
2018-10-18T13:43:58.079Z,14.16
2018-10-18T13:45:08.445Z,14.19
2018-10-18T13:46:18.952Z,14.16
2018-10-18T13:47:29.245Z,14.1
2018-10-18T13:48:39.440Z,14.14
2018-10-18T13:49:49.625Z,14.13
2018-10-18T13:50:59.889Z,14.13
2018-10-18T13:52:09.665Z,14.14
2018-10-18T13:53:19.801Z,14.09
2018-10-18T13:54:29.595Z,14.13
2018-10-18T13:55:39.744Z,14.1
2018-10-18T13:56:49.921Z,14.1
2018-10-18T13:58:00.093Z,14.07
2018-10-18T13:59:10.588Z,14.13
2018-10-18T14:00:21.591Z,14.14
2018-10-18T14:01:32.075Z,14.1
2018-10-18T14:02:42.224Z,14.18
2018-10-18T14:03:52.111Z,14.07
2018-10-18T14:05:02.541Z,14.18
2018-10-18T14:06:12.963Z,14.13
2018-10-18T14:07:23.159Z,14.16
2018-10-18T14:08:33.863Z,14.14
2018-10-18T14:09:44.592Z,14.19
2018-10-18T14:10:54.790Z,14.19
2018-10-18T14:12:05.005Z,14.19
2018-10-18T14:13:14.882Z,14.13
2018-10-18T14:14:25.029Z,14.13
2018-10-18T14:15:35.196Z,14.09
2018-10-18T14:16:45.369Z,14.11
2018-10-18T14:17:55.738Z,14.14
2018-10-18T14:19:06.368Z,14.19
2018-10-18T14:20:16.490Z,14.13
2018-10-18T14:21:27.078Z,14.11
2018-10-18T14:22:37.214Z,14.16
2018-10-18T14:23:47.347Z,14.1
2018-10-18T14:24:57.246Z,14.13
2018-10-18T14:26:07.583Z,14.11
2018-10-18T14:27:18.128Z,14.13
2018-10-18T14:28:28.276Z,14.16
2018-10-18T14:29:38.163Z,14.1
2018-10-18T14:30:48.544Z,14.19
2018-10-18T14:31:59.269Z,14.11
2018-10-18T14:33:09.561Z,14.11
2018-10-18T14:34:19.700Z,14.16
2018-10-18T14:35:29.850Z,14.11
2018-10-18T14:36:40.012Z,14.14
2018-10-18T14:37:50.180Z,14.13
2018-10-18T14:39:00.693Z,14.16
2018-10-18T14:40:11.240Z,14.1
2018-10-18T14:41:21.690Z,14.16
2018-10-18T14:42:31.858Z,14.11
2018-10-18T14:43:42.100Z,14.14
2018-10-18T14:44:52.719Z,14.21
2018-10-18T14:46:03.303Z,14.19
2018-10-18T14:47:13.774Z,14.19
2018-10-18T14:48:24.598Z,14.24
2018-10-18T14:49:34.769Z,14.25
2018-10-18T14:50:45.290Z,14.24
2018-10-18T14:51:55.450Z,14.25
2018-10-18T14:53:05.868Z,14.28
2018-10-18T14:54:16.280Z,14.28
2018-10-18T14:55:26.418Z,14.26
2018-10-18T14:56:36.588Z,14.29
2018-10-18T14:57:46.729Z,14.26
2018-10-18T14:58:56.918Z,14.28
2018-10-18T15:00:07.211Z,14.25
2018-10-18T15:01:17.389Z,14.22
2018-10-18T15:02:27.549Z,14.18
2018-10-18T15:03:37.784Z,14.21
2018-10-18T15:04:47.964Z,14.19
2018-10-18T15:05:58.387Z,14.21
2018-10-18T15:07:08.549Z,14.16
2018-10-18T15:08:18.926Z,14.13
2018-10-18T15:09:28.838Z,14.14
2018-10-18T15:10:39.010Z,14.19
2018-10-18T15:11:49.157Z,14.18
2018-10-18T15:12:59.311Z,14.09
2018-10-18T15:14:09.571Z,14.11
2018-10-18T15:15:20.081Z,14.07
2018-10-18T15:16:30.235Z,14.04